Terminal Aerodrome Forecast
Issued by NWS Portland, ME

Home | Current Version | Previous Version | Text Only | Print | Product List | Glossary On
Versions: 1 2 3 4 5 6 7 8 9 10 11 12 13 14 15
000
FTUS41 KGYX 130800 AAA
TAFPWM
TAF AMD
KPWM 130804Z 1308/1406 VRB03KT P6SM FEW090 SCT250
     FM131100 18005KT P6SM FEW045 SCT090 BKN250
     FM131400 18010KT P6SM SCT045 BKN090
     FM131700 18012G22KT P6SM BKN045
     FM132300 18010KT P6SM VCSH OVC035=

USA.gov is the U.S. government's official web portal to all federal, state and local government web resources and services.